CW8738 Weather Reports


Display with metric or nautical units.
time (UTC)temp
F
wind
direction
speed
MPH
gust
MPH
rain 1hr
in
rain 24hr
in
rain mn
in
humidity
%
barometer
mb
20190223062516 17 142 1.0 3.0 0.00 0.00 0.00 71 1022.5
20190223061516 18 144 3.0 6.0 0.00 0.00 0.00 75 1022.2
20190223060517 19 132 6.0 7.0 0.00 0.00 0.00 73 1022.1
20190223055516 20 147 4.0 8.0 0.00 0.00 0.00 69 1022.0
20190223054517 20 132 4.0 7.0 0.00 0.00 0.00 71 1022.0
20190223053517 19 117 1.0 3.0 0.00 0.00 0.00 72 1022.0
20190223052516 18 127 1.0 3.0 0.00 0.00 0.00 72 1021.8
20190223051517 19 126 0.0 2.0 0.00 0.00 0.00 69 1021.7
20190223050521 21 137 2.0 3.0 0.00 0.00 0.00 67 1021.7
20190223045516 21 151 1.0 2.0 0.00 0.00 0.00 67 1021.6
20190223044517 21 146 1.0 6.0 0.00 0.00 0.00 69 1021.7
20190223043517 19 130 4.0 7.0 0.00 0.00 0.00 75 1021.6
20190223042516 17 120 1.0 3.0 0.00 0.00 0.00 76 1021.4
20190223041516 20 129 1.0 2.0 0.00 0.00 0.00 73 1021.3
20190223040517 20 134 2.0 4.0 0.00 0.00 0.00 75 1021.2
20190223035516 18 132 2.0 4.0 0.00 0.00 0.00 79 1020.9
20190223034517 18 185 0.0 1.0 0.00 0.00 0.00 75 1020.9
20190223033517 20 252 0.0 1.0 0.00 0.00 0.00 70 1020.8
20190223032516 23 137 1.0 3.0 0.00 0.00 0.00 70 1020.6
20190223031516 24 135 4.0 6.0 0.00 0.00 0.00 72 1020.4
20190223030516 23 140 4.0 6.0 0.00 0.00 0.00 72 1020.3
20190223025516 24 140 5.0 7.0 0.00 0.00 0.00 71 1020.1
20190223024516 25 139 6.0 8.0 0.00 0.00 0.00 70 1019.9
20190223023516 25 142 6.0 8.0 0.00 0.00 0.00 70 1019.9
20190223022516 25 136 6.0 9.0 0.00 0.00 0.00 70 1019.8
20190223021516 26 143 7.0 9.0 0.00 0.00 0.00 68 1019.6
20190223020516 26 138 5.0 8.0 0.00 0.00 0.00 67 1019.6
20190223015516 27 143 6.0 8.0 0.00 0.00 0.00 69 1019.5
20190223014516 27 142 5.0 7.0 0.00 0.00 0.00 68 1019.3
20190223013516 29 138 4.0 6.0 0.00 0.00 0.00 63 1019.2
20190223012516 31 150 4.0 6.0 0.00 0.00 0.00 57 1019.2
20190223011516 32 133 5.0 7.0 0.00 0.00 0.00 53 1019.0
20190223010516 32 148 5.0 8.0 0.00 0.00 0.00 54 1019.1
20190223005516 32 144 5.0 7.0 0.00 0.00 0.00 54 1019.1
20190223004516 32 139 6.0 7.0 0.00 0.00 0.00 55 1019.1
20190223003516 31 143 5.0 7.0 0.00 0.00 0.00 54 1019.2
20190223002516 32 138 6.0 8.0 0.00 0.00 0.00 54 1019.2
20190223001516 31 135 6.0 8.0 0.00 0.00 0.00 54 1019.2
20190223000516 31 146 6.0 8.0 0.00 0.00 0.00 55 1019.2
20190222235516 31 147 6.0 8.0 0.00 0.00 0.00 55 1019.1
20190222234516 31 146 6.0 8.0 0.00 0.00 0.00 55 1019.0
20190222233516 31 149 6.0 8.0 0.00 0.00 0.00 54 1019.1
20190222232516 31 161 4.0 7.0 0.00 0.00 0.00 54 1019.1
20190222231516 32 160 4.0 7.0 0.00 0.00 0.00 53 1019.2
20190222230516 32 169 3.0 5.0 0.00 0.00 0.00 55 1019.3
20190222225516 32 165 3.0 5.0 0.00 0.00 0.00 55 1019.3
20190222224516 31 170 2.0 6.0 0.00 0.00 0.00 54 1019.3
20190222223516 31 177 2.0 5.0 0.00 0.00 0.00 56 1019.3
20190222222516 30 164 2.0 5.0 0.00 0.00 0.00 57 1019.3
20190222221515 30 150 3.0 6.0 0.00 0.00 0.00 57 1019.3
20190222220516 30 171 4.0 8.0 0.00 0.00 0.00 57 1019.2
20190222215516 30 165 4.0 7.0 0.00 0.00 0.00 57 1019.3
20190222214515 30 143 3.0 6.0 0.00 0.00 0.00 58 1019.3
20190222213515 30 116 3.0 6.0 0.00 0.00 0.00 56 1019.3
20190222212515 29 156 4.0 7.0 0.00 0.00 0.00 55 1019.2
20190222211516 30 152 1.0 5.0 0.00 0.00 0.00 53 1019.4
20190222210515 29 141 2.0 5.0 0.00 0.00 0.00 50 1019.6
20190222205516 29 142 2.0 4.0 0.00 0.00 0.00 51 1019.6
20190222204516 28 137 1.0 4.0 0.00 0.00 0.00 52 1019.6
20190222203516 28 145 3.0 6.0 0.00 0.00 0.00 58 1019.7
20190222202516 27 144 5.0 8.0 0.00 0.00 0.00 62 1019.8
20190222201516 27 152 6.0 8.0 0.00 0.00 0.00 60 1020.0
20190222200515 27 144 5.0 8.0 0.00 0.00 0.00 61 1020.1
20190222195516 27 143 4.0 6.0 0.00 0.00 0.00 60 1020.3
20190222194516 27 160 4.0 6.0 0.00 0.00 0.00 59 1020.3
20190222193515 26 151 4.0 6.0 0.00 0.00 0.00 60 1020.3
20190222192515 26 152 4.0 6.0 0.00 0.00 0.00 61 1020.3
20190222191515 26 160 4.0 5.0 0.00 0.00 0.00 61 1020.3
20190222190516 26 148 2.0 5.0 0.00 0.00 0.00 63 1020.4
20190222185515 26 150 3.0 5.0 0.00 0.00 0.00 62 1020.2
20190222184515 26 155 2.0 4.0 0.00 0.00 0.00 63 1020.3
20190222183516 26 139 1.0 2.0 0.00 0.00 0.00 60 1020.1
20190222182515 25 119 0.0 2.0 0.00 0.00 0.00 64 1020.0
20190222181515 24 121 1.0 2.0 0.00 0.00 0.00 65 1020.0
20190222180516 24 148 0.0 2.0 0.00 0.00 0.00 65 1020.0
20190222175515 22 137 1.0 3.0 0.00 0.00 0.00 67 1019.9
20190222174515 21 110 2.0 4.0 0.00 0.00 0.00 68 1019.8
20190222173517 20 124 4.0 5.0 0.00 0.00 0.00 66 1019.8
20190222172515 22 178 1.0 3.0 0.00 0.00 0.00 64 1019.9
20190222171517 20 161 0.0 2.0 0.00 0.00 0.00 73 1019.9
20190222170515 17 120 1.0 2.0 0.00 0.00 0.00 69 1020.0
20190222165517 18 149 1.0 3.0 0.00 0.00 0.00 64 1019.9
20190222164517 20 169 0.0 1.0 0.00 0.00 0.00 65 1019.8
20190222163517 19 90 0.0 0.0 0.00 0.00 0.00 69 1019.8
20190222162517 18 107 0.0 1.0 0.00 0.00 0.00 73 1019.7
20190222161522 17 156 1.0 3.0 0.00 0.00 0.00 69 1019.8
20190222160517 15 103 1.0 2.0 0.00 0.00 0.00 75 1019.7
20190222155517 13 126 1.0 3.0 0.00 0.00 0.00 75 1019.6
20190222154517 13 150 3.0 5.0 0.00 0.00 0.00 72 1019.4
20190222153517 13 123 2.0 3.0 0.00 0.00 0.00 75 1019.2
20190222152517 13 128 4.0 7.0 0.00 0.00 0.00 75 1019.1
20190222151517 12 136 2.0 5.0 0.00 0.00 0.00 74 1019.0
20190222150517 13 138 2.0 5.0 0.00 0.00 0.00 75 1018.8
20190222145517 13 148 4.0 7.0 0.00 0.00 0.00 76 1018.6
20190222144517 11 135 3.0 6.0 0.00 0.00 0.00 80 1018.5
20190222143517 10 107 3.0 5.0 0.00 0.00 0.00 71 1018.5
20190222142517 14 153 0.0 2.0 0.00 0.00 0.00 75 1018.4
20190222141517 12 113 4.0 5.0 0.00 0.00 0.00 79 1018.4
20190222140517 13 140 2.0 5.0 0.00 0.00 0.00 77 1018.4
20190222135517 13 145 4.0 7.0 0.00 0.00 0.00 81 1018.3
20190222134517 10 123 6.0 8.0 0.00 0.00 0.00 82 1018.2
20190222133517 11 128 3.0 5.0 0.00 0.00 0.00 76 1018.1
20190222132517 11 120 1.0 3.0 0.00 0.00 0.00 78 1017.9
20190222131517 15 139 2.0 6.0 0.00 0.00 0.00 80 1017.9
20190222130517 16 139 2.0 5.0 0.00 0.00 0.00 81 1017.9
20190222125517 16 135 2.0 5.0 0.00 0.00 0.00 77 1017.8
20190222124517 13 108 3.0 5.0 0.00 0.00 0.00 78 1017.8
20190222123517 16 112 2.0 4.0 0.00 0.00 0.00 81 1017.6
20190222122517 17 118 3.0 5.0 0.00 0.00 0.00 79 1017.6
20190222121517 15 127 4.0 7.0 0.00 0.00 0.00 74 1017.5
20190222120517 19 150 2.0 6.0 0.00 0.00 0.00 73 1017.3
20190222115517 20 111 1.0 3.0 0.00 0.00 0.00 75 1017.0
20190222114517 18 104 5.0 7.0 0.00 0.00 0.00 76 1017.0
20190222113516 16 109 2.0 4.0 0.00 0.00 0.00 76 1016.8
20190222112517 18 237 0.0 1.0 0.00 0.00 0.00 76 1016.8
20190222111517 18 90 0.0 0.0 0.00 0.00 0.00 77 1016.8
20190222110517 19 141 3.0 4.0 0.00 0.00 0.00 74 1016.8
20190222105516 21 154 3.0 5.0 0.00 0.00 0.00 74 1016.6
20190222104517 21 166 1.0 3.0 0.00 0.00 0.00 76 1016.5
20190222103516 22 160 4.0 6.0 0.00 0.00 0.00 75 1016.4
20190222102517 22 144 2.0 4.0 0.00 0.00 0.00 72 1016.5
20190222101516 22 208 1.0 3.0 0.00 0.00 0.00 69 1016.6
20190222100517 23 275 0.0 1.0 0.00 0.00 0.00 68 1016.6
20190222095516 24 278 0.0 3.0 0.00 0.00 0.00 65 1016.5
20190222094517 24 109 0.0 2.0 0.00 0.00 0.00 64 1016.4
20190222093516 24 345 0.0 4.0 0.00 0.00 0.00 63 1016.4
20190222092516 24 65 0.0 2.0 0.00 0.00 0.00 64 1016.4
20190222091516 24 23 0.0 2.0 0.00 0.00 0.00 63 1016.4
20190222090516 24 8 2.0 7.0 0.00 0.00 0.00 64 1016.3
20190222085517 24 348 3.0 5.0 0.00 0.00 0.00 65 1016.3
20190222084516 24 344 3.0 6.0 0.00 0.00 0.00 64 1016.2
20190222083517 24 352 2.0 7.0 0.00 0.00 0.00 65 1016.0
20190222082517 24 338 6.0 11.0 0.00 0.00 0.00 65 1015.9
20190222081517 24 338 6.0 10.0 0.00 0.00 0.00 65 1015.8
20190222080517 25 345 5.0 9.0 0.00 0.00 0.00 65 1015.6
20190222075517 25 353 5.0 11.0 0.00 0.00 0.00 66 1015.5
20190222074516 25 354 5.0 8.0 0.00 0.00 0.00 65 1015.4
20190222073516 25 17 6.0 9.0 0.00 0.00 0.00 67 1015.5
20190222072516 25 1 5.0 10.0 0.00 0.00 0.00 66 1015.4
20190222071517 25 346 9.0 13.0 0.00 0.00 0.00 67 1015.2
20190222070516 25 355 9.0 14.0 0.00 0.00 0.00 66 1015.0
20190222065517 25 352 7.0 10.0 0.00 0.00 0.00 66 1014.9
20190222064517 25 332 6.0 10.0 0.00 0.00 0.00 65 1014.8
20190222063517 25 352 9.0 16.0 0.00 0.00 0.00 65 1014.8